sensor_id;sensor_type;location;lat;lon;timestamp;P1;durP1;ratioP1;P2;durP2;ratioP2
18076;SDS011;9165;45.714;11.362;2022-07-03T00:23:21;8.40;;;3.00;;
18076;SDS011;9165;45.714;11.362;2022-07-03T01:19:36;4.40;;;3.40;;
18076;SDS011;9165;45.714;11.362;2022-07-03T03:04:39;8.40;;;3.10;;
18076;SDS011;9165;45.714;11.362;2022-07-03T03:12:01;4.60;;;3.30;;
18076;SDS011;9165;45.714;11.362;2022-07-03T03:14:29;7.85;;;3.70;;
18076;SDS011;9165;45.714;11.362;2022-07-03T03:19:24;4.40;;;3.30;;
18076;SDS011;9165;45.714;11.362;2022-07-03T03:51:09;6.80;;;3.50;;
18076;SDS011;9165;45.714;11.362;2022-07-03T03:56:05;9.50;;;3.40;;
18076;SDS011;9165;45.714;11.362;2022-07-03T04:13:11;7.40;;;3.20;;
18076;SDS011;9165;45.714;11.362;2022-07-03T04:20:31;5.70;;;3.30;;
18076;SDS011;9165;45.714;11.362;2022-07-03T04:22:58;7.00;;;3.10;;
18076;SDS011;9165;45.714;11.362;2022-07-03T04:25:24;9.30;;;3.90;;
18076;SDS011;9165;45.714;11.362;2022-07-03T04:27:51;4.50;;;3.10;;
18076;SDS011;9165;45.714;11.362;2022-07-03T04:30:20;5.67;;;3.30;;
18076;SDS011;9165;45.714;11.362;2022-07-03T04:32:46;8.60;;;3.90;;
18076;SDS011;9165;45.714;11.362;2022-07-03T04:40:06;5.25;;;3.10;;
18076;SDS011;9165;45.714;11.362;2022-07-03T04:42:33;4.15;;;2.90;;
18076;SDS011;9165;45.714;11.362;2022-07-03T04:45:00;7.90;;;3.10;;
18076;SDS011;9165;45.714;11.362;2022-07-03T04:47:28;7.60;;;3.40;;
18076;SDS011;9165;45.714;11.362;2022-07-03T04:49:55;5.40;;;2.80;;
18076;SDS011;9165;45.714;11.362;2022-07-03T04:52:21;6.30;;;3.20;;
18076;SDS011;9165;45.714;11.362;2022-07-03T04:54:48;6.50;;;3.10;;
18076;SDS011;9165;45.714;11.362;2022-07-03T05:02:07;4.05;;;3.20;;
18076;SDS011;9165;45.714;11.362;2022-07-03T05:04:36;6.90;;;3.30;;
18076;SDS011;9165;45.714;11.362;2022-07-03T05:11:55;8.00;;;3.70;;
18076;SDS011;9165;45.714;11.362;2022-07-03T05:16:48;10.00;;;3.30;;
18076;SDS011;9165;45.714;11.362;2022-07-03T05:19:15;6.15;;;3.20;;
18076;SDS011;9165;45.714;11.362;2022-07-03T05:21:43;4.00;;;3.30;;
18076;SDS011;9165;45.714;11.362;2022-07-03T05:24:11;9.25;;;4.05;;
18076;SDS011;9165;45.714;11.362;2022-07-03T05:29:04;7.00;;;2.95;;
18076;SDS011;9165;45.714;11.362;2022-07-03T05:33:57;11.70;;;3.20;;
18076;SDS011;9165;45.714;11.362;2022-07-03T05:36:23;4.35;;;3.50;;
18076;SDS011;9165;45.714;11.362;2022-07-03T05:38:52;6.05;;;3.40;;
18076;SDS011;9165;45.714;11.362;2022-07-03T05:41:32;5.00;;;3.10;;
18076;SDS011;9165;45.714;11.362;2022-07-03T05:46:25;6.45;;;3.20;;
18076;SDS011;9165;45.714;11.362;2022-07-03T05:51:18;5.50;;;3.30;;
18076;SDS011;9165;45.714;11.362;2022-07-03T05:53:45;3.50;;;2.80;;
18076;SDS011;9165;45.714;11.362;2022-07-03T05:56:13;7.35;;;3.40;;
18076;SDS011;9165;45.714;11.362;2022-07-03T05:58:39;8.07;;;3.33;;
18076;SDS011;9165;45.714;11.362;2022-07-03T06:01:06;5.80;;;2.70;;
18076;SDS011;9165;45.714;11.362;2022-07-03T06:03:33;7.90;;;3.20;;
18076;SDS011;9165;45.714;11.362;2022-07-03T06:06:00;3.80;;;3.00;;
18076;SDS011;9165;45.714;11.362;2022-07-03T06:08:26;3.33;;;2.67;;
18076;SDS011;9165;45.714;11.362;2022-07-03T06:10:53;5.40;;;2.90;;
18076;SDS011;9165;45.714;11.362;2022-07-03T06:13:22;9.43;;;3.40;;
18076;SDS011;9165;45.714;11.362;2022-07-03T06:15:48;6.25;;;3.40;;
18076;SDS011;9165;45.714;11.362;2022-07-03T06:18:15;8.70;;;3.60;;
18076;SDS011;9165;45.714;11.362;2022-07-03T06:23:08;4.90;;;2.90;;
18076;SDS011;9165;45.714;11.362;2022-07-03T06:25:34;5.43;;;3.30;;
18076;SDS011;9165;45.714;11.362;2022-07-03T06:28:01;4.10;;;2.90;;
18076;SDS011;9165;45.714;11.362;2022-07-03T06:30:29;4.20;;;3.20;;
18076;SDS011;9165;45.714;11.362;2022-07-03T06:32:55;7.90;;;3.15;;
18076;SDS011;9165;45.714;11.362;2022-07-03T06:35:22;7.53;;;3.13;;
18076;SDS011;9165;45.714;11.362;2022-07-03T06:37:49;7.27;;;4.07;;
18076;SDS011;9165;45.714;11.362;2022-07-03T06:40:15;10.00;;;4.50;;
18076;SDS011;9165;45.714;11.362;2022-07-03T06:42:41;6.20;;;2.93;;
18076;SDS011;9165;45.714;11.362;2022-07-03T06:45:08;8.00;;;3.10;;
18076;SDS011;9165;45.714;11.362;2022-07-03T06:47:39;5.97;;;3.17;;
18076;SDS011;9165;45.714;11.362;2022-07-03T06:50:06;8.17;;;4.30;;
18076;SDS011;9165;45.714;11.362;2022-07-03T06:52:33;10.05;;;4.45;;
18076;SDS011;9165;45.714;11.362;2022-07-03T06:54:59;7.03;;;3.37;;
18076;SDS011;9165;45.714;11.362;2022-07-03T06:57:26;9.40;;;3.57;;
18076;SDS011;9165;45.714;11.362;2022-07-03T06:59:53;6.85;;;3.85;;
18076;SDS011;9165;45.714;11.362;2022-07-03T07:02:19;6.10;;;3.87;;
18076;SDS011;9165;45.714;11.362;2022-07-03T07:12:07;9.23;;;3.40;;
18076;SDS011;9165;45.714;11.362;2022-07-03T07:14:33;4.40;;;3.23;;
18076;SDS011;9165;45.714;11.362;2022-07-03T07:17:00;7.13;;;3.33;;
18076;SDS011;9165;45.714;11.362;2022-07-03T07:19:26;5.43;;;3.40;;
18076;SDS011;9165;45.714;11.362;2022-07-03T07:21:53;8.60;;;3.20;;
18076;SDS011;9165;45.714;11.362;2022-07-03T07:24:19;4.60;;;2.77;;
18076;SDS011;9165;45.714;11.362;2022-07-03T07:26:46;253.33;;;193.53;;
18076;SDS011;9165;45.714;11.362;2022-07-03T07:29:14;89.77;;;60.60;;
18076;SDS011;9165;45.714;11.362;2022-07-03T07:31:40;33.83;;;22.13;;
18076;SDS011;9165;45.714;11.362;2022-07-03T07:34:07;115.03;;;83.97;;
18076;SDS011;9165;45.714;11.362;2022-07-03T07:36:33;100.93;;;72.50;;
18076;SDS011;9165;45.714;11.362;2022-07-03T07:39:00;61.37;;;45.80;;
18076;SDS011;9165;45.714;11.362;2022-07-03T07:41:27;47.13;;;32.03;;
18076;SDS011;9165;45.714;11.362;2022-07-03T07:43:53;26.80;;;15.63;;
18076;SDS011;9165;45.714;11.362;2022-07-03T07:46:21;13.70;;;10.47;;
18076;SDS011;9165;45.714;11.362;2022-07-03T07:48:47;17.95;;;12.95;;
18076;SDS011;9165;45.714;11.362;2022-07-03T07:51:14;18.23;;;13.60;;
18076;SDS011;9165;45.714;11.362;2022-07-03T07:53:41;17.77;;;8.77;;
18076;SDS011;9165;45.714;11.362;2022-07-03T07:56:07;12.30;;;6.93;;
18076;SDS011;9165;45.714;11.362;2022-07-03T07:58:34;10.63;;;6.37;;
18076;SDS011;9165;45.714;11.362;2022-07-03T08:01:01;5.53;;;3.43;;
18076;SDS011;9165;45.714;11.362;2022-07-03T08:03:47;3.63;;;3.00;;
18076;SDS011;9165;45.714;11.362;2022-07-03T08:06:36;6.30;;;5.25;;
18076;SDS011;9165;45.714;11.362;2022-07-03T08:09:03;5.67;;;5.07;;
18076;SDS011;9165;45.714;11.362;2022-07-03T08:11:29;4.53;;;3.53;;
18076;SDS011;9165;45.714;11.362;2022-07-03T08:13:56;5.27;;;2.70;;
18076;SDS011;9165;45.714;11.362;2022-07-03T08:16:22;4.70;;;2.40;;
18076;SDS011;9165;45.714;11.362;2022-07-03T08:18:50;5.50;;;2.70;;
18076;SDS011;9165;45.714;11.362;2022-07-03T08:21:18;5.00;;;2.90;;
18076;SDS011;9165;45.714;11.362;2022-07-03T08:23:45;13.65;;;3.45;;
18076;SDS011;9165;45.714;11.362;2022-07-03T08:26:12;4.65;;;3.00;;
18076;SDS011;9165;45.714;11.362;2022-07-03T08:28:38;3.75;;;2.70;;
18076;SDS011;9165;45.714;11.362;2022-07-03T08:31:05;4.55;;;2.80;;
18076;SDS011;9165;45.714;11.362;2022-07-03T08:33:31;6.00;;;2.80;;
18076;SDS011;9165;45.714;11.362;2022-07-03T08:35:59;9.75;;;3.35;;
18076;SDS011;9165;45.714;11.362;2022-07-03T08:38:27;15.00;;;3.60;;
18076;SDS011;9165;45.714;11.362;2022-07-03T08:40:56;3.50;;;3.00;;
18076;SDS011;9165;45.714;11.362;2022-07-03T08:43:23;4.20;;;3.15;;
18076;SDS011;9165;45.714;11.362;2022-07-03T08:53:11;5.30;;;2.90;;
18076;SDS011;9165;45.714;11.362;2022-07-03T08:55:38;6.20;;;2.90;;
18076;SDS011;9165;45.714;11.362;2022-07-03T08:58:05;5.50;;;3.00;;
18076;SDS011;9165;45.714;11.362;2022-07-03T09:02:58;6.80;;;2.80;;
18076;SDS011;9165;45.714;11.362;2022-07-03T09:05:29;5.60;;;3.30;;
18076;SDS011;9165;45.714;11.362;2022-07-03T09:07:56;4.75;;;2.65;;
18076;SDS011;9165;45.714;11.362;2022-07-03T09:12:50;7.20;;;3.70;;
18076;SDS011;9165;45.714;11.362;2022-07-03T09:15:17;10.15;;;3.45;;
18076;SDS011;9165;45.714;11.362;2022-07-03T09:17:58;5.10;;;3.00;;
18076;SDS011;9165;45.714;11.362;2022-07-03T09:20:28;7.70;;;2.95;;
18076;SDS011;9165;45.714;11.362;2022-07-03T09:22:58;7.70;;;3.80;;
18076;SDS011;9165;45.714;11.362;2022-07-03T09:25:34;5.60;;;3.00;;
18076;SDS011;9165;45.714;11.362;2022-07-03T09:28:02;7.70;;;3.00;;
18076;SDS011;9165;45.714;11.362;2022-07-03T09:30:28;4.75;;;2.97;;
18076;SDS011;9165;45.714;11.362;2022-07-03T09:32:55;4.27;;;2.70;;
18076;SDS011;9165;45.714;11.362;2022-07-03T09:35:22;7.82;;;3.15;;
18076;SDS011;9165;45.714;11.362;2022-07-03T09:37:49;8.23;;;3.23;;
18076;SDS011;9165;45.714;11.362;2022-07-03T09:40:16;11.60;;;3.57;;
18076;SDS011;9165;45.714;11.362;2022-07-03T09:42:56;6.53;;;3.57;;
18076;SDS011;9165;45.714;11.362;2022-07-03T09:45:24;6.50;;;3.25;;
18076;SDS011;9165;45.714;11.362;2022-07-03T09:47:51;31.87;;;5.90;;
18076;SDS011;9165;45.714;11.362;2022-07-03T09:50:17;223.63;;;25.43;;
18076;SDS011;9165;45.714;11.362;2022-07-03T09:52:44;71.13;;;11.37;;
18076;SDS011;9165;45.714;11.362;2022-07-03T09:55:12;68.90;;;11.00;;
18076;SDS011;9165;45.714;11.362;2022-07-03T09:57:40;58.60;;;9.40;;
18076;SDS011;9165;45.714;11.362;2022-07-03T10:00:10;13.03;;;3.50;;
18076;SDS011;9165;45.714;11.362;2022-07-03T10:05:21;59.67;;;7.78;;
18076;SDS011;9165;45.714;11.362;2022-07-03T10:07:52;13.63;;;4.37;;
18076;SDS011;9165;45.714;11.362;2022-07-03T10:10:19;19.98;;;3.42;;
18076;SDS011;9165;45.714;11.362;2022-07-03T10:12:47;43.33;;;8.03;;
18076;SDS011;9165;45.714;11.362;2022-07-03T10:15:14;25.13;;;5.43;;
18076;SDS011;9165;45.714;11.362;2022-07-03T10:17:41;18.17;;;5.13;;
18076;SDS011;9165;45.714;11.362;2022-07-03T10:20:08;15.90;;;4.60;;
18076;SDS011;9165;45.714;11.362;2022-07-03T10:22:40;10.10;;;3.95;;
18076;SDS011;9165;45.714;11.362;2022-07-03T10:25:07;47.38;;;26.67;;
18076;SDS011;9165;45.714;11.362;2022-07-03T10:27:35;20.77;;;7.47;;
18076;SDS011;9165;45.714;11.362;2022-07-03T10:30:02;16.00;;;5.65;;
18076;SDS011;9165;45.714;11.362;2022-07-03T10:32:29;13.88;;;6.35;;
18076;SDS011;9165;45.714;11.362;2022-07-03T10:34:58;11.20;;;3.47;;
18076;SDS011;9165;45.714;11.362;2022-07-03T10:37:28;10.35;;;5.15;;
18076;SDS011;9165;45.714;11.362;2022-07-03T10:39:57;9.82;;;4.82;;
18076;SDS011;9165;45.714;11.362;2022-07-03T10:42:45;6.38;;;3.42;;
18076;SDS011;9165;45.714;11.362;2022-07-03T10:45:31;6.22;;;2.97;;
18076;SDS011;9165;45.714;11.362;2022-07-03T10:47:58;4.97;;;4.07;;
18076;SDS011;9165;45.714;11.362;2022-07-03T10:50:24;6.30;;;3.20;;
18076;SDS011;9165;45.714;11.362;2022-07-03T10:52:51;8.45;;;4.10;;
18076;SDS011;9165;45.714;11.362;2022-07-03T10:55:19;4.78;;;3.35;;
18076;SDS011;9165;45.714;11.362;2022-07-03T11:00:27;4.90;;;2.90;;
18076;SDS011;9165;45.714;11.362;2022-07-03T11:02:53;9.77;;;3.55;;
18076;SDS011;9165;45.714;11.362;2022-07-03T11:05:21;8.43;;;3.33;;
18076;SDS011;9165;45.714;11.362;2022-07-03T11:08:06;7.10;;;3.17;;
18076;SDS011;9165;45.714;11.362;2022-07-03T11:10:35;5.50;;;3.63;;
18076;SDS011;9165;45.714;11.362;2022-07-03T11:13:06;5.00;;;3.20;;
18076;SDS011;9165;45.714;11.362;2022-07-03T11:15:34;6.75;;;3.10;;
18076;SDS011;9165;45.714;11.362;2022-07-03T11:18:07;5.85;;;2.80;;
18076;SDS011;9165;45.714;11.362;2022-07-03T11:20:34;12.80;;;3.35;;
18076;SDS011;9165;45.714;11.362;2022-07-03T11:23:03;8.68;;;3.20;;
18076;SDS011;9165;45.714;11.362;2022-07-03T11:25:39;9.80;;;3.50;;
18076;SDS011;9165;45.714;11.362;2022-07-03T11:28:06;7.90;;;3.25;;
18076;SDS011;9165;45.714;11.362;2022-07-03T11:30:33;10.13;;;4.10;;
18076;SDS011;9165;45.714;11.362;2022-07-03T11:32:59;12.68;;;3.80;;
18076;SDS011;9165;45.714;11.362;2022-07-03T11:38:17;6.80;;;3.55;;
18076;SDS011;9165;45.714;11.362;2022-07-03T11:40:45;6.10;;;2.90;;
18076;SDS011;9165;45.714;11.362;2022-07-03T11:43:13;6.80;;;4.03;;
18076;SDS011;9165;45.714;11.362;2022-07-03T11:45:40;29.08;;;26.50;;
18076;SDS011;9165;45.714;11.362;2022-07-03T11:48:08;6.80;;;3.65;;
18076;SDS011;9165;45.714;11.362;2022-07-03T11:50:38;20.23;;;15.55;;
18076;SDS011;9165;45.714;11.362;2022-07-03T11:53:14;8.73;;;3.75;;
18076;SDS011;9165;45.714;11.362;2022-07-03T11:55:46;10.20;;;4.95;;
18076;SDS011;9165;45.714;11.362;2022-07-03T11:58:13;6.22;;;3.25;;
18076;SDS011;9165;45.714;11.362;2022-07-03T12:00:40;4.35;;;2.97;;
18076;SDS011;9165;45.714;11.362;2022-07-03T12:03:07;6.28;;;3.55;;
18076;SDS011;9165;45.714;11.362;2022-07-03T12:05:33;6.28;;;3.75;;
18076;SDS011;9165;45.714;11.362;2022-07-03T12:08:03;10.20;;;3.35;;
18076;SDS011;9165;45.714;11.362;2022-07-03T12:10:37;10.85;;;3.38;;
18076;SDS011;9165;45.714;11.362;2022-07-03T12:13:05;8.73;;;3.80;;
18076;SDS011;9165;45.714;11.362;2022-07-03T12:15:44;9.57;;;4.20;;
18076;SDS011;9165;45.714;11.362;2022-07-03T12:18:11;6.63;;;3.55;;
18076;SDS011;9165;45.714;11.362;2022-07-03T12:20:38;5.15;;;3.25;;
18076;SDS011;9165;45.714;11.362;2022-07-03T12:23:04;7.57;;;3.85;;
18076;SDS011;9165;45.714;11.362;2022-07-03T12:25:31;9.75;;;3.20;;
18076;SDS011;9165;45.714;11.362;2022-07-03T12:27:58;5.78;;;3.10;;
18076;SDS011;9165;45.714;11.362;2022-07-03T12:30:26;6.97;;;3.92;;
18076;SDS011;9165;45.714;11.362;2022-07-03T12:32:52;13.13;;;4.10;;
18076;SDS011;9165;45.714;11.362;2022-07-03T12:35:20;3.75;;;3.08;;
18076;SDS011;9165;45.714;11.362;2022-07-03T12:37:47;6.80;;;3.67;;
18076;SDS011;9165;45.714;11.362;2022-07-03T12:40:14;11.27;;;3.45;;
18076;SDS011;9165;45.714;11.362;2022-07-03T12:42:44;8.07;;;3.33;;
18076;SDS011;9165;45.714;11.362;2022-07-03T12:45:11;8.30;;;3.40;;
18076;SDS011;9165;45.714;11.362;2022-07-03T12:47:39;9.60;;;4.05;;
18076;SDS011;9165;45.714;11.362;2022-07-03T12:50:06;10.85;;;4.00;;
18076;SDS011;9165;45.714;11.362;2022-07-03T12:52:34;12.85;;;8.45;;
18076;SDS011;9165;45.714;11.362;2022-07-03T12:55:01;6.53;;;3.20;;
18076;SDS011;9165;45.714;11.362;2022-07-03T12:57:28;8.90;;;4.82;;
18076;SDS011;9165;45.714;11.362;2022-07-03T13:00:12;8.32;;;3.80;;
18076;SDS011;9165;45.714;11.362;2022-07-03T13:02:43;5.25;;;3.80;;
18076;SDS011;9165;45.714;11.362;2022-07-03T13:05:13;6.07;;;3.05;;
18076;SDS011;9165;45.714;11.362;2022-07-03T13:07:41;7.22;;;3.25;;
18076;SDS011;9165;45.714;11.362;2022-07-03T13:10:08;4.57;;;3.10;;
18076;SDS011;9165;45.714;11.362;2022-07-03T13:12:44;6.55;;;3.75;;
18076;SDS011;9165;45.714;11.362;2022-07-03T13:15:11;7.05;;;3.60;;
18076;SDS011;9165;45.714;11.362;2022-07-03T13:20:33;6.68;;;3.20;;
18076;SDS011;9165;45.714;11.362;2022-07-03T13:23:00;4.72;;;3.10;;
18076;SDS011;9165;45.714;11.362;2022-07-03T13:25:27;9.93;;;3.80;;
18076;SDS011;9165;45.714;11.362;2022-07-03T13:28:02;6.72;;;2.83;;
18076;SDS011;9165;45.714;11.362;2022-07-03T13:30:29;8.02;;;3.03;;
18076;SDS011;9165;45.714;11.362;2022-07-03T13:32:55;9.20;;;3.60;;
18076;SDS011;9165;45.714;11.362;2022-07-03T13:35:22;4.82;;;3.50;;
18076;SDS011;9165;45.714;11.362;2022-07-03T13:37:50;8.10;;;3.42;;
18076;SDS011;9165;45.714;11.362;2022-07-03T13:40:17;5.25;;;3.40;;
18076;SDS011;9165;45.714;11.362;2022-07-03T13:42:44;6.82;;;3.88;;
18076;SDS011;9165;45.714;11.362;2022-07-03T13:45:10;4.82;;;3.22;;
18076;SDS011;9165;45.714;11.362;2022-07-03T13:47:37;8.52;;;3.80;;
18076;SDS011;9165;45.714;11.362;2022-07-03T13:50:04;9.05;;;4.30;;
18076;SDS011;9165;45.714;11.362;2022-07-03T13:52:31;7.38;;;3.25;;
18076;SDS011;9165;45.714;11.362;2022-07-03T13:54:59;6.38;;;3.63;;
18076;SDS011;9165;45.714;11.362;2022-07-03T13:57:26;5.47;;;3.58;;
18076;SDS011;9165;45.714;11.362;2022-07-03T13:59:52;6.40;;;2.95;;
18076;SDS011;9165;45.714;11.362;2022-07-03T14:02:19;5.28;;;3.65;;
18076;SDS011;9165;45.714;11.362;2022-07-03T14:04:46;10.98;;;3.45;;
18076;SDS011;9165;45.714;11.362;2022-07-03T14:07:12;4.80;;;3.15;;
18076;SDS011;9165;45.714;11.362;2022-07-03T14:09:39;6.05;;;4.00;;
18076;SDS011;9165;45.714;11.362;2022-07-03T14:12:07;9.55;;;4.00;;
18076;SDS011;9165;45.714;11.362;2022-07-03T14:14:34;9.35;;;3.55;;
18076;SDS011;9165;45.714;11.362;2022-07-03T14:17:01;5.32;;;3.45;;
18076;SDS011;9165;45.714;11.362;2022-07-03T14:19:27;5.30;;;3.55;;
18076;SDS011;9165;45.714;11.362;2022-07-03T14:21:54;6.32;;;3.33;;
18076;SDS011;9165;45.714;11.362;2022-07-03T14:24:20;7.55;;;3.78;;
18076;SDS011;9165;45.714;11.362;2022-07-03T14:26:47;12.85;;;3.70;;
18076;SDS011;9165;45.714;11.362;2022-07-03T14:29:31;8.80;;;3.65;;
18076;SDS011;9165;45.714;11.362;2022-07-03T14:32:15;4.15;;;3.20;;
18076;SDS011;9165;45.714;11.362;2022-07-03T14:34:58;6.30;;;3.72;;
18076;SDS011;9165;45.714;11.362;2022-07-03T14:37:25;8.70;;;3.42;;
18076;SDS011;9165;45.714;11.362;2022-07-03T14:39:52;6.60;;;3.92;;
18076;SDS011;9165;45.714;11.362;2022-07-03T14:42:18;5.78;;;3.50;;
18076;SDS011;9165;45.714;11.362;2022-07-03T14:44:46;8.82;;;3.92;;
18076;SDS011;9165;45.714;11.362;2022-07-03T14:47:13;7.50;;;3.67;;
18076;SDS011;9165;45.714;11.362;2022-07-03T14:49:40;8.98;;;3.50;;
18076;SDS011;9165;45.714;11.362;2022-07-03T14:52:07;36.45;;;32.70;;
18076;SDS011;9165;45.714;11.362;2022-07-03T14:54:34;9.27;;;5.38;;
18076;SDS011;9165;45.714;11.362;2022-07-03T14:57:01;6.47;;;4.10;;
18076;SDS011;9165;45.714;11.362;2022-07-03T15:02:18;3.80;;;3.50;;
18076;SDS011;9165;45.714;11.362;2022-07-03T15:04:50;28.67;;;19.23;;
18076;SDS011;9165;45.714;11.362;2022-07-03T15:07:20;7.43;;;3.60;;
18076;SDS011;9165;45.714;11.362;2022-07-03T15:09:50;1435.60;;;999.90;;
18076;SDS011;9165;45.714;11.362;2022-07-03T15:12:20;1468.85;;;999.90;;
18076;SDS011;9165;45.714;11.362;2022-07-03T15:14:54;1449.88;;;999.90;;
18076;SDS011;9165;45.714;11.362;2022-07-03T15:17:22;1448.13;;;999.90;;
18076;SDS011;9165;45.714;11.362;2022-07-03T15:19:49;1451.88;;;999.90;;
18076;SDS011;9165;45.714;11.362;2022-07-03T15:22:16;1437.78;;;999.90;;
18076;SDS011;9165;45.714;11.362;2022-07-03T15:24:43;1433.55;;;999.90;;
18076;SDS011;9165;45.714;11.362;2022-07-03T15:27:12;1446.15;;;999.90;;
18076;SDS011;9165;45.714;11.362;2022-07-03T15:29:38;1440.40;;;999.90;;
18076;SDS011;9165;45.714;11.362;2022-07-03T15:32:07;1500.03;;;999.90;;
18076;SDS011;9165;45.714;11.362;2022-07-03T15:34:36;1490.03;;;999.90;;
18076;SDS011;9165;45.714;11.362;2022-07-03T15:37:04;1474.78;;;999.90;;
18076;SDS011;9165;45.714;11.362;2022-07-03T15:39:37;1463.47;;;999.90;;
18076;SDS011;9165;45.714;11.362;2022-07-03T15:42:06;1455.30;;;999.90;;
18076;SDS011;9165;45.714;11.362;2022-07-03T15:44:37;1444.67;;;999.90;;
18076;SDS011;9165;45.714;11.362;2022-07-03T15:47:09;1456.97;;;999.90;;
18076;SDS011;9165;45.714;11.362;2022-07-03T15:49:40;1455.40;;;999.90;;
18076;SDS011;9165;45.714;11.362;2022-07-03T15:52:13;1445.93;;;999.90;;
18076;SDS011;9165;45.714;11.362;2022-07-03T15:54:49;1451.47;;;999.90;;
18076;SDS011;9165;45.714;11.362;2022-07-03T15:57:18;1434.63;;;999.90;;
18076;SDS011;9165;45.714;11.362;2022-07-03T15:59:48;1444.70;;;999.90;;
18076;SDS011;9165;45.714;11.362;2022-07-03T16:02:18;1442.47;;;999.90;;
18076;SDS011;9165;45.714;11.362;2022-07-03T16:04:51;1453.35;;;999.90;;
18076;SDS011;9165;45.714;11.362;2022-07-03T16:07:19;1419.15;;;999.90;;
18076;SDS011;9165;45.714;11.362;2022-07-03T16:09:46;1423.30;;;999.90;;
18076;SDS011;9165;45.714;11.362;2022-07-03T16:12:13;1427.20;;;999.90;;
18076;SDS011;9165;45.714;11.362;2022-07-03T16:14:42;1417.93;;;999.90;;
18076;SDS011;9165;45.714;11.362;2022-07-03T16:17:08;1412.93;;;999.90;;
18076;SDS011;9165;45.714;11.362;2022-07-03T16:19:37;1420.23;;;999.90;;
18076;SDS011;9165;45.714;11.362;2022-07-03T16:22:07;1469.40;;;999.90;;
18076;SDS011;9165;45.714;11.362;2022-07-03T16:24:37;1452.47;;;999.90;;
18076;SDS011;9165;45.714;11.362;2022-07-03T16:27:04;1450.40;;;999.90;;
18076;SDS011;9165;45.714;11.362;2022-07-03T16:29:31;1424.60;;;999.90;;
18076;SDS011;9165;45.714;11.362;2022-07-03T16:32:01;1427.10;;;999.90;;
18076;SDS011;9165;45.714;11.362;2022-07-03T16:34:30;1420.30;;;999.90;;
18076;SDS011;9165;45.714;11.362;2022-07-03T16:36:58;1420.43;;;999.90;;
18076;SDS011;9165;45.714;11.362;2022-07-03T16:39:30;1392.07;;;999.90;;
18076;SDS011;9165;45.714;11.362;2022-07-03T16:41:59;1393.67;;;999.90;;
18076;SDS011;9165;45.714;11.362;2022-07-03T16:44:26;1400.50;;;999.90;;
18076;SDS011;9165;45.714;11.362;2022-07-03T16:46:53;1413.20;;;999.90;;
18076;SDS011;9165;45.714;11.362;2022-07-03T16:49:23;1396.73;;;999.90;;
18076;SDS011;9165;45.714;11.362;2022-07-03T16:51:51;1391.57;;;999.90;;
18076;SDS011;9165;45.714;11.362;2022-07-03T16:54:17;1392.87;;;999.90;;
18076;SDS011;9165;45.714;11.362;2022-07-03T16:56:47;1375.70;;;999.90;;
18076;SDS011;9165;45.714;11.362;2022-07-03T16:59:14;1388.97;;;999.90;;
18076;SDS011;9165;45.714;11.362;2022-07-03T17:01:42;1382.33;;;999.90;;
18076;SDS011;9165;45.714;11.362;2022-07-03T17:04:09;1382.17;;;999.90;;
18076;SDS011;9165;45.714;11.362;2022-07-03T17:06:36;1376.47;;;999.90;;
18076;SDS011;9165;45.714;11.362;2022-07-03T17:09:03;1394.60;;;999.90;;
18076;SDS011;9165;45.714;11.362;2022-07-03T17:11:29;1377.60;;;999.90;;
18076;SDS011;9165;45.714;11.362;2022-07-03T17:13:58;1380.27;;;999.90;;
18076;SDS011;9165;45.714;11.362;2022-07-03T17:16:25;1384.53;;;999.90;;
18076;SDS011;9165;45.714;11.362;2022-07-03T17:18:53;1378.60;;;999.90;;
18076;SDS011;9165;45.714;11.362;2022-07-03T17:21:25;1379.47;;;999.90;;
18076;SDS011;9165;45.714;11.362;2022-07-03T17:23:52;1367.63;;;999.90;;
18076;SDS011;9165;45.714;11.362;2022-07-03T17:26:19;1381.47;;;999.90;;
18076;SDS011;9165;45.714;11.362;2022-07-03T17:28:52;1371.63;;;999.90;;
18076;SDS011;9165;45.714;11.362;2022-07-03T17:31:27;1353.53;;;999.90;;
18076;SDS011;9165;45.714;11.362;2022-07-03T17:34:00;1367.00;;;999.90;;
18076;SDS011;9165;45.714;11.362;2022-07-03T17:36:29;1376.60;;;999.90;;
18076;SDS011;9165;45.714;11.362;2022-07-03T17:38:57;1362.67;;;999.90;;
18076;SDS011;9165;45.714;11.362;2022-07-03T17:41:24;1369.43;;;999.90;;
18076;SDS011;9165;45.714;11.362;2022-07-03T17:43:52;1343.30;;;999.90;;
18076;SDS011;9165;45.714;11.362;2022-07-03T17:46:18;1346.10;;;999.90;;
18076;SDS011;9165;45.714;11.362;2022-07-03T17:51:15;1324.30;;;999.90;;
18076;SDS011;9165;45.714;11.362;2022-07-03T17:53:43;1326.97;;;999.90;;
18076;SDS011;9165;45.714;11.362;2022-07-03T17:56:10;1331.43;;;999.90;;
18076;SDS011;9165;45.714;11.362;2022-07-03T17:58:37;1314.30;;;999.90;;
18076;SDS011;9165;45.714;11.362;2022-07-03T18:01:05;1317.10;;;999.90;;
18076;SDS011;9165;45.714;11.362;2022-07-03T18:03:32;1316.73;;;999.90;;
18076;SDS011;9165;45.714;11.362;2022-07-03T18:05:58;1305.80;;;999.90;;
18076;SDS011;9165;45.714;11.362;2022-07-03T18:08:28;1306.07;;;999.90;;
18076;SDS011;9165;45.714;11.362;2022-07-03T18:10:59;1308.93;;;999.90;;
18076;SDS011;9165;45.714;11.362;2022-07-03T18:13:27;1304.20;;;999.90;;
18076;SDS011;9165;45.714;11.362;2022-07-03T18:15:55;1306.17;;;999.90;;
18076;SDS011;9165;45.714;11.362;2022-07-03T18:18:26;1290.47;;;999.90;;
18076;SDS011;9165;45.714;11.362;2022-07-03T18:20:55;1299.83;;;999.90;;
18076;SDS011;9165;45.714;11.362;2022-07-03T18:23:21;1290.53;;;999.90;;
18076;SDS011;9165;45.714;11.362;2022-07-03T18:25:51;1285.07;;;999.90;;
18076;SDS011;9165;45.714;11.362;2022-07-03T18:28:21;1285.40;;;999.90;;
18076;SDS011;9165;45.714;11.362;2022-07-03T18:30:48;1284.87;;;999.90;;
18076;SDS011;9165;45.714;11.362;2022-07-03T18:33:16;1269.70;;;999.90;;
18076;SDS011;9165;45.714;11.362;2022-07-03T18:35:44;1273.73;;;999.90;;
18076;SDS011;9165;45.714;11.362;2022-07-03T18:38:12;1276.10;;;999.90;;
18076;SDS011;9165;45.714;11.362;2022-07-03T18:40:39;1269.57;;;999.90;;
18076;SDS011;9165;45.714;11.362;2022-07-03T18:43:07;1275.17;;;999.90;;
18076;SDS011;9165;45.714;11.362;2022-07-03T18:45:36;1270.13;;;999.90;;
18076;SDS011;9165;45.714;11.362;2022-07-03T18:48:03;1263.90;;;999.90;;
18076;SDS011;9165;45.714;11.362;2022-07-03T18:50:30;1259.80;;;999.90;;
18076;SDS011;9165;45.714;11.362;2022-07-03T18:53:00;1265.53;;;999.90;;
18076;SDS011;9165;45.714;11.362;2022-07-03T18:55:29;1250.53;;;999.90;;
18076;SDS011;9165;45.714;11.362;2022-07-03T18:57:59;1252.17;;;999.90;;
18076;SDS011;9165;45.714;11.362;2022-07-03T19:00:31;1253.73;;;999.90;;
18076;SDS011;9165;45.714;11.362;2022-07-03T19:03:01;1249.87;;;999.90;;
18076;SDS011;9165;45.714;11.362;2022-07-03T19:05:35;1240.10;;;999.90;;
18076;SDS011;9165;45.714;11.362;2022-07-03T19:08:02;1227.57;;;999.90;;
18076;SDS011;9165;45.714;11.362;2022-07-03T19:10:30;1248.97;;;999.90;;
18076;SDS011;9165;45.714;11.362;2022-07-03T19:12:59;1258.53;;;999.90;;
18076;SDS011;9165;45.714;11.362;2022-07-03T19:15:30;1209.67;;;999.90;;
18076;SDS011;9165;45.714;11.362;2022-07-03T19:17:58;1223.23;;;999.90;;
18076;SDS011;9165;45.714;11.362;2022-07-03T19:20:24;1216.53;;;999.90;;
18076;SDS011;9165;45.714;11.362;2022-07-03T19:22:51;1222.17;;;999.90;;
18076;SDS011;9165;45.714;11.362;2022-07-03T19:25:18;1236.90;;;999.90;;
18076;SDS011;9165;45.714;11.362;2022-07-03T19:27:44;1243.33;;;999.90;;
18076;SDS011;9165;45.714;11.362;2022-07-03T19:30:11;1223.77;;;999.90;;
18076;SDS011;9165;45.714;11.362;2022-07-03T19:32:40;1223.80;;;999.90;;
18076;SDS011;9165;45.714;11.362;2022-07-03T19:35:07;1230.47;;;999.90;;